Smoke Creek, Nevada
Current Conditions -  °F | °C
As of 2:55 PM on Friday 31 Oct 2014 (Local Time) from KAAT Reporting Station
Light Rain Light Rain  
Wind Chill: 39°   Ceiling: 1300
Heat Index: 45°   Visibility: 5mi
Dew Point: 42°   Wind: 13mph
Humidity: 90%   Direction: 320°NW
Pressure: 29.82"   Gusts: NA
Location:  41.1852°N, 119.649°W
Report Text: KAAT 312155Z AUTO 32011KT 5SM -RA BR BKN013 BKN017 OVC027 07/06 A2982 RMK AO2 SLP081 P0006 T00720056
Loading
Personal Weather Stations






























Interactive Weather Map
Tropical Storm Tracking
New forecast layout! Learn more

10-Day Weather Forecast

Advertisements
Track Severe Weather on mobile